Jacksons Creek, North Carolina
Current Conditions -  °F | °C
As of 11:15 AM on Tuesday 21 Oct 2014 (Local Time) from KHBI Reporting Station
Clear Clear  
Wind Chill: 64°   Ceiling: Unl
Heat Index: 64°   Visibility: 10mi
Dew Point: 51°   Wind: 3mph
Humidity: 64%   Direction: 260°W
Pressure: 29.97"   Gusts: NA
Location:  35.6015°N, 80.0858°W
Report Text: KHBI 211515Z AUTO 26003KT 10SM CLR 18/11 A2997 RMK AO2 T01750106
Loading
Personal Weather Stations






























Interactive Weather Map
Tropical Storm Tracking
New forecast layout! Learn more

10-Day Weather Forecast

Advertisements
Track Severe Weather on mobile